Terminal Aerodrome Forecast
Issued by NWS

Home | Current Version | Previous Version | Text Only | Print | Product List | Glossary On
Versions: 1 2 3 4 5 6 7 8 9 10 11 12 13 14 15 16 17 18
000
FTUS41 KPBZ 010500
TAFFKL
TAF
KFKL 010524Z 0106/0206 22005KT P6SM OVC035
     FM010800 21005KT 4SM -SN OVC020
     FM011000 VRB04KT 1SM -SN OVC008
     FM011700 10004KT 3/4SM -SN OVC004
     FM020000 08007KT 1/2SM SN OVC003
      AMD LTD TO CLD VIS AND WIND=

USA.gov is the U.S. government's official web portal to all federal, state and local government web resources and services.